Pagrindinis puslapis
METAR-TAF:

METAR-TAF

Oro uostai :

Finkenwerder, Vokietija

platuma: 53-32N, ilguma: 009-50E, Aukštis: 5 m

Dabartinis oras

Ataskaita buvo paskelbta 30 minutes, ne 04:20 UTC
Vėjas 5 kt iš Pietų, svyruoja nuo Rytų/Pietryčių ir Pietvakarių
Temperatūra 4°C
Drėgmė 93%
Slėgis 995 hPa
Matomumas: 2200 m

METAR: EDHI 290420Z AUTO 17005KT 110V220 9000 2200 // OVC007/// 04/03 Q0995

Laikas: 05:50 (04:50 UTC)

Prognozė

Ataskaita buvo paskelbta 11 valandos ir 50 minutes, ne 17:00 UTC
Prognozė galioja nuo 28 metu 18 UTC su 28 metu 21 UTC
Vėjas 7 kt iš Pietų
Matomumas 10 km arba daugiau
nėra debesų žemiau 1500 m ir nėra kamuolinių lietaus debesų

TAF: EDHI 281700Z 2818/2821 19007KT CAVOK

Orai ataskaitas ir orų prognozės (METAR, TAF).

turimą stotys yra geltonos ir raudonos taškus žemėlapyje.

Perkelti pele per norėdami pamatyti stoties vardą.

Tada spustelėkite, norėdami matyti oro stebėjimo ir prognozės.

Norėdami pakeisti žemėlapį: spustelėkite ant žalios mygtukų su juodo kryžiaus žemyn,; žalią mygtuką su brūkšneliu, jei norite nutolinti; arba žalių rodyklių gretimoms žemėlapius.


METAR-TAF: